sensor_id;sensor_type;location;lat;lon;timestamp;pressure;altitude;pressure_sealevel;temperature;humidity
8697;BME280;4385;48.848;8.924;2023-08-17T00:01:49;97565.88;;;24.26;100.00
8697;BME280;4385;48.848;8.924;2023-08-17T00:04:14;97559.91;;;24.26;100.00
8697;BME280;4385;48.848;8.924;2023-08-17T00:06:40;97562.41;;;24.27;100.00
8697;BME280;4385;48.848;8.924;2023-08-17T00:09:05;97554.75;;;24.26;100.00
8697;BME280;4385;48.848;8.924;2023-08-17T00:11:31;97552.25;;;24.24;100.00
8697;BME280;4385;48.848;8.924;2023-08-17T00:13:57;97555.72;;;24.23;100.00
8697;BME280;4385;48.848;8.924;2023-08-17T00:16:22;97560.06;;;24.23;100.00
8697;BME280;4385;48.848;8.924;2023-08-17T00:18:48;97560.06;;;24.23;100.00
8697;BME280;4385;48.848;8.924;2023-08-17T00:21:14;97552.41;;;24.21;100.00
8697;BME280;4385;48.848;8.924;2023-08-17T00:23:39;97552.41;;;24.21;100.00
8697;BME280;4385;48.848;8.924;2023-08-17T00:26:04;97551.53;;;24.21;100.00
8697;BME280;4385;48.848;8.924;2023-08-17T00:28:30;97554.19;;;24.19;100.00
8697;BME280;4385;48.848;8.924;2023-08-17T00:30:55;97564.50;;;24.19;100.00
8697;BME280;4385;48.848;8.924;2023-08-17T00:33:20;97544.75;;;24.20;100.00
8697;BME280;4385;48.848;8.924;2023-08-17T00:35:45;97547.38;;;24.18;100.00
8697;BME280;4385;48.848;8.924;2023-08-17T00:38:12;97551.63;;;24.19;100.00
8697;BME280;4385;48.848;8.924;2023-08-17T00:40:37;97546.47;;;24.19;100.00
8697;BME280;4385;48.848;8.924;2023-08-17T00:43:03;97551.63;;;24.19;100.00
8697;BME280;4385;48.848;8.924;2023-08-17T00:45:28;97544.81;;;24.18;100.00
8697;BME280;4385;48.848;8.924;2023-08-17T00:47:56;97542.22;;;24.18;100.00
8697;BME280;4385;48.848;8.924;2023-08-17T00:50:22;97547.31;;;24.20;100.00
8697;BME280;4385;48.848;8.924;2023-08-17T00:52:48;97548.19;;;24.19;100.00
8697;BME280;4385;48.848;8.924;2023-08-17T00:55:13;97540.53;;;24.17;100.00
8697;BME280;4385;48.848;8.924;2023-08-17T00:57:40;97542.22;;;24.18;100.00
8697;BME280;4385;48.848;8.924;2023-08-17T01:00:08;97540.47;;;24.19;100.00
8697;BME280;4385;48.848;8.924;2023-08-17T01:02:35;97533.75;;;24.16;100.00
8697;BME280;4385;48.848;8.924;2023-08-17T01:05:00;97535.41;;;24.17;100.00
8697;BME280;4385;48.848;8.924;2023-08-17T01:07:26;97528.59;;;24.16;100.00
8697;BME280;4385;48.848;8.924;2023-08-17T01:09:51;97538.88;;;24.16;100.00
8697;BME280;4385;48.848;8.924;2023-08-17T01:12:24;97540.53;;;24.17;100.00
8697;BME280;4385;48.848;8.924;2023-08-17T01:17:29;97537.97;;;24.17;100.00
8697;BME280;4385;48.848;8.924;2023-08-17T01:19:58;97533.75;;;24.16;100.00
8697;BME280;4385;48.848;8.924;2023-08-17T01:22:24;97533.75;;;24.16;100.00
8697;BME280;4385;48.848;8.924;2023-08-17T01:24:49;97534.66;;;24.15;100.00
8697;BME280;4385;48.848;8.924;2023-08-17T01:27:15;97527.75;;;24.15;100.00
8697;BME280;4385;48.848;8.924;2023-08-17T01:29:40;97527.75;;;24.15;100.00
8697;BME280;4385;48.848;8.924;2023-08-17T01:32:21;97525.22;;;24.14;100.00
8697;BME280;4385;48.848;8.924;2023-08-17T01:34:50;97531.22;;;24.14;100.00
8697;BME280;4385;48.848;8.924;2023-08-17T01:37:20;97532.06;;;24.15;100.00
8697;BME280;4385;48.848;8.924;2023-08-17T01:39:49;97531.28;;;24.13;100.00
8697;BME280;4385;48.848;8.924;2023-08-17T01:42:17;97540.66;;;24.14;100.00
8697;BME280;4385;48.848;8.924;2023-08-17T01:44:44;97535.50;;;24.14;100.00
8697;BME280;4385;48.848;8.924;2023-08-17T01:47:09;97537.25;;;24.13;100.00
8697;BME280;4385;48.848;8.924;2023-08-17T01:49:35;97534.69;;;24.13;100.00
8697;BME280;4385;48.848;8.924;2023-08-17T01:52:00;97532.19;;;24.12;100.00
8697;BME280;4385;48.848;8.924;2023-08-17T01:54:26;97531.34;;;24.11;100.00
8697;BME280;4385;48.848;8.924;2023-08-17T01:56:51;97525.34;;;24.11;100.00
8697;BME280;4385;48.848;8.924;2023-08-17T01:59:16;97530.50;;;24.11;100.00
8697;BME280;4385;48.848;8.924;2023-08-17T02:01:42;97526.19;;;24.11;100.00
8697;BME280;4385;48.848;8.924;2023-08-17T02:04:07;97528.84;;;24.10;100.00
8697;BME280;4385;48.848;8.924;2023-08-17T02:06:32;97518.53;;;24.10;100.00
8697;BME280;4385;48.848;8.924;2023-08-17T02:08:58;97524.59;;;24.09;100.00
8697;BME280;4385;48.848;8.924;2023-08-17T02:11:23;97521.19;;;24.08;100.00
8697;BME280;4385;48.848;8.924;2023-08-17T02:13:49;97507.47;;;24.08;100.00
8697;BME280;4385;48.848;8.924;2023-08-17T02:16:14;97515.19;;;24.08;100.00
8697;BME280;4385;48.848;8.924;2023-08-17T02:18:39;97510.03;;;24.08;100.00
8697;BME280;4385;48.848;8.924;2023-08-17T02:21:05;97514.31;;;24.09;100.00
8697;BME280;4385;48.848;8.924;2023-08-17T02:23:30;97510.81;;;24.10;100.00
8697;BME280;4385;48.848;8.924;2023-08-17T02:25:55;97513.47;;;24.08;100.00
8697;BME280;4385;48.848;8.924;2023-08-17T02:28:21;97503.94;;;24.10;100.00
8697;BME280;4385;48.848;8.924;2023-08-17T02:30:46;97507.41;;;24.09;100.00
8697;BME280;4385;48.848;8.924;2023-08-17T02:33:11;97505.66;;;24.10;100.00
8697;BME280;4385;48.848;8.924;2023-08-17T02:35:37;97503.09;;;24.10;100.00
8697;BME280;4385;48.848;8.924;2023-08-17T02:38:02;97492.78;;;24.10;100.00
8697;BME280;4385;48.848;8.924;2023-08-17T02:40:27;97482.50;;;24.10;100.00
8697;BME280;4385;48.848;8.924;2023-08-17T02:42:53;97486.00;;;24.09;100.00
8697;BME280;4385;48.848;8.924;2023-08-17T02:45:18;97485.16;;;24.08;100.00
8697;BME280;4385;48.848;8.924;2023-08-17T02:47:43;97473.13;;;24.09;100.00
8697;BME280;4385;48.848;8.924;2023-08-17T02:50:09;97478.25;;;24.09;100.00
8697;BME280;4385;48.848;8.924;2023-08-17T02:52:35;97486.88;;;24.08;100.00
8697;BME280;4385;48.848;8.924;2023-08-17T02:55:00;97480.84;;;24.09;100.00
8697;BME280;4385;48.848;8.924;2023-08-17T02:57:25;97469.69;;;24.08;100.00
8697;BME280;4385;48.848;8.924;2023-08-17T02:59:50;97473.13;;;24.09;100.00
8697;BME280;4385;48.848;8.924;2023-08-17T03:02:16;97474.84;;;24.08;100.00
8697;BME280;4385;48.848;8.924;2023-08-17T03:04:41;97473.88;;;24.11;100.00
8697;BME280;4385;48.848;8.924;2023-08-17T03:07:07;97469.50;;;24.13;100.00
8697;BME280;4385;48.848;8.924;2023-08-17T03:09:33;97473.78;;;24.12;100.00
8697;BME280;4385;48.848;8.924;2023-08-17T03:11:58;97463.50;;;24.12;100.00
8697;BME280;4385;48.848;8.924;2023-08-17T03:14:23;97468.56;;;24.14;100.00
8697;BME280;4385;48.848;8.924;2023-08-17T03:16:49;97457.47;;;24.13;100.00
8697;BME280;4385;48.848;8.924;2023-08-17T03:19:15;97455.69;;;24.14;100.00
8697;BME280;4385;48.848;8.924;2023-08-17T03:21:40;97454.03;;;24.13;100.00
8697;BME280;4385;48.848;8.924;2023-08-17T03:24:05;97447.97;;;24.14;100.00
8697;BME280;4385;48.848;8.924;2023-08-17T03:26:31;97456.50;;;24.16;100.00
8697;BME280;4385;48.848;8.924;2023-08-17T03:28:56;97450.56;;;24.14;100.00
8697;BME280;4385;48.848;8.924;2023-08-17T03:31:21;97460.03;;;24.13;100.00
8697;BME280;4385;48.848;8.924;2023-08-17T03:33:47;97455.91;;;24.09;100.00
8697;BME280;4385;48.848;8.924;2023-08-17T03:36:12;97456.75;;;24.10;100.00
8697;BME280;4385;48.848;8.924;2023-08-17T03:38:38;97461.91;;;24.10;100.00
8697;BME280;4385;48.848;8.924;2023-08-17T03:41:05;97453.28;;;24.11;100.00
8697;BME280;4385;48.848;8.924;2023-08-17T03:43:30;97455.91;;;24.09;100.00
8697;BME280;4385;48.848;8.924;2023-08-17T03:45:55;97454.19;;;24.10;100.00
8697;BME280;4385;48.848;8.924;2023-08-17T03:48:20;97458.56;;;24.08;100.00
8697;BME280;4385;48.848;8.924;2023-08-17T03:50:51;97450.84;;;24.08;100.00
8697;BME280;4385;48.848;8.924;2023-08-17T03:53:16;97459.47;;;24.07;100.00
8697;BME280;4385;48.848;8.924;2023-08-17T03:55:46;97462.91;;;24.07;100.00
8697;BME280;4385;48.848;8.924;2023-08-17T03:58:11;97466.34;;;24.06;100.00
8697;BME280;4385;48.848;8.924;2023-08-17T04:00:36;97471.50;;;24.06;100.00
8697;BME280;4385;48.848;8.924;2023-08-17T04:03:02;97469.84;;;24.05;100.00
8697;BME280;4385;48.848;8.924;2023-08-17T04:05:27;97470.69;;;24.06;100.00
8697;BME280;4385;48.848;8.924;2023-08-17T04:07:52;97475.84;;;24.06;100.00
8697;BME280;4385;48.848;8.924;2023-08-17T04:10:18;97475.00;;;24.05;100.00
8697;BME280;4385;48.848;8.924;2023-08-17T04:12:43;97481.06;;;24.04;100.00
8697;BME280;4385;48.848;8.924;2023-08-17T04:15:08;97472.47;;;24.03;100.00
8697;BME280;4385;48.848;8.924;2023-08-17T04:17:34;97474.13;;;24.04;100.00
8697;BME280;4385;48.848;8.924;2023-08-17T04:19:59;97484.44;;;24.04;100.00
8697;BME280;4385;48.848;8.924;2023-08-17T04:22:24;97484.50;;;24.03;100.00
8697;BME280;4385;48.848;8.924;2023-08-17T04:24:50;97486.19;;;24.04;100.00
8697;BME280;4385;48.848;8.924;2023-08-17T04:27:15;97489.59;;;24.04;100.00
8697;BME280;4385;48.848;8.924;2023-08-17T04:29:40;97487.09;;;24.03;100.00
8697;BME280;4385;48.848;8.924;2023-08-17T04:32:05;97494.72;;;24.04;100.00
8697;BME280;4385;48.848;8.924;2023-08-17T04:34:31;97494.72;;;24.04;100.00
8697;BME280;4385;48.848;8.924;2023-08-17T04:36:56;97496.44;;;24.06;100.00
8697;BME280;4385;48.848;8.924;2023-08-17T04:39:21;97505.88;;;24.05;100.00
8697;BME280;4385;48.848;8.924;2023-08-17T04:41:47;97504.88;;;24.08;100.00
8697;BME280;4385;48.848;8.924;2023-08-17T04:44:13;97496.44;;;24.06;100.00
8697;BME280;4385;48.848;8.924;2023-08-17T04:46:38;97498.09;;;24.07;100.00
8697;BME280;4385;48.848;8.924;2023-08-17T04:49:03;97501.56;;;24.06;100.00
8697;BME280;4385;48.848;8.924;2023-08-17T04:51:29;97496.44;;;24.06;100.00
8697;BME280;4385;48.848;8.924;2023-08-17T04:53:54;97501.56;;;24.06;100.00
8697;BME280;4385;48.848;8.924;2023-08-17T04:56:20;97501.56;;;24.06;100.00
8697;BME280;4385;48.848;8.924;2023-08-17T04:58:45;97511.88;;;24.06;100.00
8697;BME280;4385;48.848;8.924;2023-08-17T05:01:10;97499.81;;;24.06;100.00
8697;BME280;4385;48.848;8.924;2023-08-17T05:03:35;97494.72;;;24.04;100.00
8697;BME280;4385;48.848;8.924;2023-08-17T05:06:01;97506.72;;;24.06;100.00
8697;BME280;4385;48.848;8.924;2023-08-17T05:08:26;97505.88;;;24.05;100.00
8697;BME280;4385;48.848;8.924;2023-08-17T05:10:51;97506.78;;;24.04;100.00
8697;BME280;4385;48.848;8.924;2023-08-17T05:13:17;97510.19;;;24.04;100.00
8697;BME280;4385;48.848;8.924;2023-08-17T05:15:42;97507.59;;;24.04;100.00
8697;BME280;4385;48.848;8.924;2023-08-17T05:18:08;97507.59;;;24.04;100.00
8697;BME280;4385;48.848;8.924;2023-08-17T05:20:33;97506.78;;;24.04;100.00
8697;BME280;4385;48.848;8.924;2023-08-17T05:22:58;97513.66;;;24.03;100.00
8697;BME280;4385;48.848;8.924;2023-08-17T05:25:24;97515.31;;;24.04;100.00
8697;BME280;4385;48.848;8.924;2023-08-17T05:27:51;97512.00;;;24.02;100.00
8697;BME280;4385;48.848;8.924;2023-08-17T05:30:16;97509.38;;;24.04;100.00
8697;BME280;4385;48.848;8.924;2023-08-17T05:32:42;97518.81;;;24.03;100.00
8697;BME280;4385;48.848;8.924;2023-08-17T05:35:07;97514.44;;;24.06;100.00
8697;BME280;4385;48.848;8.924;2023-08-17T05:37:33;97508.53;;;24.03;100.00
8697;BME280;4385;48.848;8.924;2023-08-17T05:39:58;97518.88;;;24.02;100.00
8697;BME280;4385;48.848;8.924;2023-08-17T05:42:23;97518.88;;;24.02;100.00
8697;BME280;4385;48.848;8.924;2023-08-17T05:44:48;97517.97;;;24.03;100.00
8697;BME280;4385;48.848;8.924;2023-08-17T05:47:14;97521.38;;;24.03;100.00
8697;BME280;4385;48.848;8.924;2023-08-17T05:49:42;97522.31;;;24.02;100.00
8697;BME280;4385;48.848;8.924;2023-08-17T05:52:08;97519.78;;;24.01;100.00
8697;BME280;4385;48.848;8.924;2023-08-17T05:54:33;97523.97;;;24.03;100.00
8697;BME280;4385;48.848;8.924;2023-08-17T05:56:58;97520.47;;;24.04;100.00
8697;BME280;4385;48.848;8.924;2023-08-17T05:59:24;97527.31;;;24.06;100.00
8697;BME280;4385;48.848;8.924;2023-08-17T06:01:49;97527.31;;;24.06;100.00
8697;BME280;4385;48.848;8.924;2023-08-17T06:04:14;97525.63;;;24.04;100.00
8697;BME280;4385;48.848;8.924;2023-08-17T06:06:40;97528.19;;;24.04;100.00
8697;BME280;4385;48.848;8.924;2023-08-17T06:09:05;97524.81;;;24.04;100.00
8697;BME280;4385;48.848;8.924;2023-08-17T06:11:32;97529.09;;;24.03;100.00
8697;BME280;4385;48.848;8.924;2023-08-17T06:13:58;97529.09;;;24.03;100.00
8697;BME280;4385;48.848;8.924;2023-08-17T06:16:23;97535.09;;;24.04;100.00
8697;BME280;4385;48.848;8.924;2023-08-17T06:18:49;97530.78;;;24.04;100.00
8697;BME280;4385;48.848;8.924;2023-08-17T06:21:15;97531.69;;;24.03;100.00
8697;BME280;4385;48.848;8.924;2023-08-17T06:23:40;97531.69;;;24.03;100.00
8697;BME280;4385;48.848;8.924;2023-08-17T06:26:05;97523.97;;;24.03;100.00
8697;BME280;4385;48.848;8.924;2023-08-17T06:28:32;97529.09;;;24.03;100.00
8697;BME280;4385;48.848;8.924;2023-08-17T06:30:58;97534.25;;;24.03;100.00
8697;BME280;4385;48.848;8.924;2023-08-17T06:33:23;97541.97;;;24.03;100.00
8697;BME280;4385;48.848;8.924;2023-08-17T06:35:49;97535.91;;;24.04;100.00
8697;BME280;4385;48.848;8.924;2023-08-17T06:38:14;97530.78;;;24.04;100.00
8697;BME280;4385;48.848;8.924;2023-08-17T06:40:40;97531.63;;;24.05;100.00
8697;BME280;4385;48.848;8.924;2023-08-17T06:43:05;97530.78;;;24.04;100.00
8697;BME280;4385;48.848;8.924;2023-08-17T06:45:34;97526.47;;;24.05;100.00
8697;BME280;4385;48.848;8.924;2023-08-17T06:47:59;97521.38;;;24.03;100.00
8697;BME280;4385;48.848;8.924;2023-08-17T06:50:25;97524.81;;;24.04;100.00
8697;BME280;4385;48.848;8.924;2023-08-17T06:52:51;97520.47;;;24.04;100.00
8697;BME280;4385;48.848;8.924;2023-08-17T06:55:17;97525.63;;;24.04;100.00
8697;BME280;4385;48.848;8.924;2023-08-17T06:57:42;97525.63;;;24.04;100.00
8697;BME280;4385;48.848;8.924;2023-08-17T07:00:08;97518.75;;;24.05;100.00
8697;BME280;4385;48.848;8.924;2023-08-17T07:02:33;97527.31;;;24.06;100.00
8697;BME280;4385;48.848;8.924;2023-08-17T07:05:00;97527.31;;;24.06;100.00
8697;BME280;4385;48.848;8.924;2023-08-17T07:07:25;97529.88;;;24.06;100.00
8697;BME280;4385;48.848;8.924;2023-08-17T07:09:50;97527.31;;;24.06;100.00
8697;BME280;4385;48.848;8.924;2023-08-17T07:12:15;97537.59;;;24.06;100.00
8697;BME280;4385;48.848;8.924;2023-08-17T07:14:41;97528.19;;;24.04;100.00
8697;BME280;4385;48.848;8.924;2023-08-17T07:17:06;97536.69;;;24.07;100.00
8697;BME280;4385;48.848;8.924;2023-08-17T07:19:32;97532.47;;;24.06;100.00
8697;BME280;4385;48.848;8.924;2023-08-17T07:21:57;97535.91;;;24.04;100.00
8697;BME280;4385;48.848;8.924;2023-08-17T07:24:22;97532.53;;;24.04;100.00
8697;BME280;4385;48.848;8.924;2023-08-17T07:26:48;97542.75;;;24.06;100.00
8697;BME280;4385;48.848;8.924;2023-08-17T07:29:13;97543.56;;;24.06;100.00
8697;BME280;4385;48.848;8.924;2023-08-17T07:31:39;97541.91;;;24.05;100.00
8697;BME280;4385;48.848;8.924;2023-08-17T07:34:05;97532.47;;;24.06;100.00
8697;BME280;4385;48.848;8.924;2023-08-17T07:36:30;97533.34;;;24.04;100.00
8697;BME280;4385;48.848;8.924;2023-08-17T07:38:56;97542.75;;;24.06;100.00
8697;BME280;4385;48.848;8.924;2023-08-17T07:41:21;97537.59;;;24.06;100.00
8697;BME280;4385;48.848;8.924;2023-08-17T07:43:46;97546.06;;;24.08;100.00
8697;BME280;4385;48.848;8.924;2023-08-17T07:46:12;97551.22;;;24.08;100.00
8697;BME280;4385;48.848;8.924;2023-08-17T07:48:37;97545.19;;;24.09;100.00
8697;BME280;4385;48.848;8.924;2023-08-17T07:51:02;97546.84;;;24.10;100.00
8697;BME280;4385;48.848;8.924;2023-08-17T07:53:27;97536.63;;;24.08;100.00
8697;BME280;4385;48.848;8.924;2023-08-17T07:55:53;97544.41;;;24.07;100.00
8697;BME280;4385;48.848;8.924;2023-08-17T07:58:18;97546.06;;;24.08;100.00
8697;BME280;4385;48.848;8.924;2023-08-17T08:00:43;97542.75;;;24.06;100.00
8697;BME280;4385;48.848;8.924;2023-08-17T08:03:09;97544.41;;;24.07;100.00
8697;BME280;4385;48.848;8.924;2023-08-17T08:05:34;97540.94;;;24.08;100.00
8697;BME280;4385;48.848;8.924;2023-08-17T08:07:59;97543.50;;;24.08;100.00
8697;BME280;4385;48.848;8.924;2023-08-17T08:10:25;97540.03;;;24.09;100.00
8697;BME280;4385;48.848;8.924;2023-08-17T08:12:50;97528.84;;;24.10;100.00
8697;BME280;4385;48.848;8.924;2023-08-17T08:15:15;97527.16;;;24.09;100.00
8697;BME280;4385;48.848;8.924;2023-08-17T08:17:41;97527.03;;;24.12;100.00
8697;BME280;4385;48.848;8.924;2023-08-17T08:20:06;97527.16;;;24.09;100.00
8697;BME280;4385;48.848;8.924;2023-08-17T08:22:32;97533.13;;;24.09;100.00
8697;BME280;4385;48.848;8.924;2023-08-17T08:24:57;97534.81;;;24.10;100.00
8697;BME280;4385;48.848;8.924;2023-08-17T08:27:23;97529.69;;;24.10;100.00
8697;BME280;4385;48.848;8.924;2023-08-17T08:29:48;97523.69;;;24.10;100.00
8697;BME280;4385;48.848;8.924;2023-08-17T08:32:14;97527.91;;;24.11;100.00
8697;BME280;4385;48.848;8.924;2023-08-17T08:34:39;97515.03;;;24.11;100.00
8697;BME280;4385;48.848;8.924;2023-08-17T08:37:04;97527.91;;;24.11;100.00
8697;BME280;4385;48.848;8.924;2023-08-17T08:39:29;97519.38;;;24.10;100.00
8697;BME280;4385;48.848;8.924;2023-08-17T08:41:55;97515.91;;;24.11;100.00
8697;BME280;4385;48.848;8.924;2023-08-17T08:44:20;97515.81;;;24.13;100.00
8697;BME280;4385;48.848;8.924;2023-08-17T08:46:46;97519.31;;;24.12;100.00
8697;BME280;4385;48.848;8.924;2023-08-17T08:49:19;97520.13;;;24.12;100.00
8697;BME280;4385;48.848;8.924;2023-08-17T08:51:47;97519.25;;;24.13;100.00
8697;BME280;4385;48.848;8.924;2023-08-17T08:54:21;97516.63;;;24.15;100.00
8697;BME280;4385;48.848;8.924;2023-08-17T08:56:54;97512.28;;;24.15;100.00
8697;BME280;4385;48.848;8.924;2023-08-17T08:59:20;97515.72;;;24.16;100.00
8697;BME280;4385;48.848;8.924;2023-08-17T09:01:46;97513.91;;;24.18;100.00
8697;BME280;4385;48.848;8.924;2023-08-17T09:04:12;97512.16;;;24.19;100.00
8697;BME280;4385;48.848;8.924;2023-08-17T09:06:38;97508.00;;;24.16;100.00
8697;BME280;4385;48.848;8.924;2023-08-17T09:09:05;97511.47;;;24.15;100.00
8697;BME280;4385;48.848;8.924;2023-08-17T09:11:31;97513.16;;;24.16;100.00
8697;BME280;4385;48.848;8.924;2023-08-17T09:13:56;97512.28;;;24.15;100.00
8697;BME280;4385;48.848;8.924;2023-08-17T09:16:21;97508.91;;;24.15;100.00
8697;BME280;4385;48.848;8.924;2023-08-17T09:18:47;97511.47;;;24.15;100.00
8697;BME280;4385;48.848;8.924;2023-08-17T09:21:23;97502.03;;;24.14;100.00
8697;BME280;4385;48.848;8.924;2023-08-17T09:23:55;97503.75;;;24.15;100.00
8697;BME280;4385;48.848;8.924;2023-08-17T09:26:21;97511.47;;;24.15;100.00
8697;BME280;4385;48.848;8.924;2023-08-17T09:28:53;97517.47;;;24.14;100.00
8697;BME280;4385;48.848;8.924;2023-08-17T09:31:23;97516.63;;;24.15;100.00
8697;BME280;4385;48.848;8.924;2023-08-17T09:33:52;97516.50;;;24.18;100.00
8697;BME280;4385;48.848;8.924;2023-08-17T09:36:22;97510.63;;;24.14;100.00
8697;BME280;4385;48.848;8.924;2023-08-17T09:38:49;97509.75;;;24.14;100.00
8697;BME280;4385;48.848;8.924;2023-08-17T09:41:16;97507.19;;;24.14;100.00
8697;BME280;4385;48.848;8.924;2023-08-17T09:43:41;97509.75;;;24.14;100.00
8697;BME280;4385;48.848;8.924;2023-08-17T09:46:06;97508.94;;;24.13;100.00
8697;BME280;4385;48.848;8.924;2023-08-17T09:48:32;97511.47;;;24.15;100.00
8697;BME280;4385;48.848;8.924;2023-08-17T09:50:58;97509.75;;;24.14;100.00
8697;BME280;4385;48.848;8.924;2023-08-17T09:53:24;97512.28;;;24.15;100.00
8697;BME280;4385;48.848;8.924;2023-08-17T09:55:50;97498.59;;;24.15;100.00
8697;BME280;4385;48.848;8.924;2023-08-17T09:58:16;97492.53;;;24.16;100.00
8697;BME280;4385;48.848;8.924;2023-08-17T10:00:46;97488.31;;;24.15;100.00
8697;BME280;4385;48.848;8.924;2023-08-17T10:03:13;97484.03;;;24.14;100.00
8697;BME280;4385;48.848;8.924;2023-08-17T10:05:40;97490.88;;;24.15;100.00
8697;BME280;4385;48.848;8.924;2023-08-17T10:08:07;97485.75;;;24.15;100.00
8697;BME280;4385;48.848;8.924;2023-08-17T10:10:44;97486.56;;;24.15;100.00
8697;BME280;4385;48.848;8.924;2023-08-17T10:13:23;97483.09;;;24.16;100.00
8697;BME280;4385;48.848;8.924;2023-08-17T10:16:08;97488.25;;;24.16;100.00
8697;BME280;4385;48.848;8.924;2023-08-17T10:18:45;97484.81;;;24.16;100.00
8697;BME280;4385;48.848;8.924;2023-08-17T10:21:27;97483.91;;;24.17;100.00
8697;BME280;4385;48.848;8.924;2023-08-17T10:23:53;97482.03;;;24.21;100.00
8697;BME280;4385;48.848;8.924;2023-08-17T10:26:20;97481.19;;;24.20;100.00
8697;BME280;4385;48.848;8.924;2023-08-17T10:28:47;97483.78;;;24.20;100.00
8697;BME280;4385;48.848;8.924;2023-08-17T10:31:13;97490.53;;;24.23;100.00
8697;BME280;4385;48.848;8.924;2023-08-17T10:33:39;97487.97;;;24.23;100.00
8697;BME280;4385;48.848;8.924;2023-08-17T10:36:07;97485.47;;;24.21;100.00
8697;BME280;4385;48.848;8.924;2023-08-17T10:38:32;97486.28;;;24.22;100.00
8697;BME280;4385;48.848;8.924;2023-08-17T10:41:12;97487.13;;;24.22;100.00
8697;BME280;4385;48.848;8.924;2023-08-17T10:43:54;97479.31;;;24.24;100.00
8697;BME280;4385;48.848;8.924;2023-08-17T10:46:19;97481.97;;;24.22;100.00
8697;BME280;4385;48.848;8.924;2023-08-17T10:48:45;97481.97;;;24.22;100.00
8697;BME280;4385;48.848;8.924;2023-08-17T10:51:10;97481.13;;;24.22;100.00
8697;BME280;4385;48.848;8.924;2023-08-17T10:53:39;97476.03;;;24.20;100.00
8697;BME280;4385;48.848;8.924;2023-08-17T10:56:11;97485.38;;;24.23;100.00
8697;BME280;4385;48.848;8.924;2023-08-17T10:58:36;97474.25;;;24.22;100.00
8697;BME280;4385;48.848;8.924;2023-08-17T11:01:02;97475.09;;;24.23;100.00
8697;BME280;4385;48.848;8.924;2023-08-17T11:03:27;97474.19;;;24.24;100.00
8697;BME280;4385;48.848;8.924;2023-08-17T11:05:55;97475.00;;;24.24;100.00
8697;BME280;4385;48.848;8.924;2023-08-17T11:11:03;97470.69;;;24.25;100.00
8697;BME280;4385;48.848;8.924;2023-08-17T11:13:30;97469.78;;;24.26;100.00
8697;BME280;4385;48.848;8.924;2023-08-17T11:15:57;97469.72;;;24.27;100.00
8697;BME280;4385;48.848;8.924;2023-08-17T11:18:23;97467.97;;;24.28;100.00
8697;BME280;4385;48.848;8.924;2023-08-17T11:20:49;97477.38;;;24.29;100.00
8697;BME280;4385;48.848;8.924;2023-08-17T11:23:15;97474.81;;;24.29;100.00
8697;BME280;4385;48.848;8.924;2023-08-17T11:25:41;97471.38;;;24.28;100.00
8697;BME280;4385;48.848;8.924;2023-08-17T11:28:10;97471.31;;;24.30;100.00
8697;BME280;4385;48.848;8.924;2023-08-17T11:30:36;97467.81;;;24.31;100.00
8697;BME280;4385;48.848;8.924;2023-08-17T11:33:04;97482.47;;;24.31;100.00
8697;BME280;4385;48.848;8.924;2023-08-17T11:35:30;97488.34;;;24.33;100.00
8697;BME280;4385;48.848;8.924;2023-08-17T11:37:55;97493.50;;;24.33;100.00
8697;BME280;4385;48.848;8.924;2023-08-17T11:40:21;97490.94;;;24.33;100.00
8697;BME280;4385;48.848;8.924;2023-08-17T11:42:46;97488.34;;;24.33;100.00
8697;BME280;4385;48.848;8.924;2023-08-17T11:45:12;97476.25;;;24.35;100.00
8697;BME280;4385;48.848;8.924;2023-08-17T11:47:39;97493.34;;;24.36;100.00
8697;BME280;4385;48.848;8.924;2023-08-17T11:50:05;97490.84;;;24.34;100.00
8697;BME280;4385;48.848;8.924;2023-08-17T11:52:32;97487.41;;;24.35;100.00
8697;BME280;4385;48.848;8.924;2023-08-17T11:55:08;97493.34;;;24.36;100.00
8697;BME280;4385;48.848;8.924;2023-08-17T11:57:35;97491.56;;;24.38;100.00
8697;BME280;4385;48.848;8.924;2023-08-17T12:00:02;97489.91;;;24.37;100.00
8697;BME280;4385;48.848;8.924;2023-08-17T12:02:29;97498.38;;;24.39;100.00
8697;BME280;4385;48.848;8.924;2023-08-17T12:04:56;97491.56;;;24.38;100.00
8697;BME280;4385;48.848;8.924;2023-08-17T12:07:25;97491.56;;;24.38;100.00
8697;BME280;4385;48.848;8.924;2023-08-17T12:09:51;97498.38;;;24.39;100.00
8697;BME280;4385;48.848;8.924;2023-08-17T12:12:22;97503.44;;;24.40;100.00
8697;BME280;4385;48.848;8.924;2023-08-17T12:14:48;97506.94;;;24.39;100.00
8697;BME280;4385;48.848;8.924;2023-08-17T12:17:18;97508.75;;;24.37;100.00
8697;BME280;4385;48.848;8.924;2023-08-17T12:19:45;97512.16;;;24.38;100.00
8697;BME280;4385;48.848;8.924;2023-08-17T12:22:13;97514.66;;;24.39;100.00
8697;BME280;4385;48.848;8.924;2023-08-17T12:24:38;97528.31;;;24.41;100.00
8697;BME280;4385;48.848;8.924;2023-08-17T12:27:07;97533.47;;;24.41;100.00
8697;BME280;4385;48.848;8.924;2023-08-17T12:29:32;97542.06;;;24.40;100.00
8697;BME280;4385;48.848;8.924;2023-08-17T12:31:58;97534.28;;;24.42;100.00
8697;BME280;4385;48.848;8.924;2023-08-17T12:34:24;97529.13;;;24.42;100.00
8697;BME280;4385;48.848;8.924;2023-08-17T12:36:49;97528.25;;;24.43;100.00
8697;BME280;4385;48.848;8.924;2023-08-17T12:39:15;97547.84;;;24.46;100.00
8697;BME280;4385;48.848;8.924;2023-08-17T12:41:40;97558.22;;;24.44;100.00
8697;BME280;4385;48.848;8.924;2023-08-17T12:44:05;97560.72;;;24.46;100.00
8697;BME280;4385;48.848;8.924;2023-08-17T12:46:31;97563.31;;;24.46;100.00
8697;BME280;4385;48.848;8.924;2023-08-17T12:48:58;97540.13;;;24.46;100.00
8697;BME280;4385;48.848;8.924;2023-08-17T12:51:24;97544.44;;;24.45;100.00
8697;BME280;4385;48.848;8.924;2023-08-17T12:53:49;97552.09;;;24.47;100.00
8697;BME280;4385;48.848;8.924;2023-08-17T12:56:14;97538.31;;;24.48;100.00
8697;BME280;4385;48.848;8.924;2023-08-17T12:58:40;97547.78;;;24.47;100.00
8697;BME280;4385;48.848;8.924;2023-08-17T13:01:05;97532.34;;;24.47;100.00
8697;BME280;4385;48.848;8.924;2023-08-17T13:03:30;97535.69;;;24.49;100.00
8697;BME280;4385;48.848;8.924;2023-08-17T13:05:56;97533.25;;;24.46;100.00
8697;BME280;4385;48.848;8.924;2023-08-17T13:08:21;97528.84;;;24.48;100.00
8697;BME280;4385;48.848;8.924;2023-08-17T13:10:46;97535.81;;;24.46;100.00